Terminal Aerodrome Forecast
Issued by NWS Boston, MA

Home | Current Version | Previous Version | Text Only | Print | Product List | Glossary On
Versions: 1 2 3 4 5 6 7 8 9 10 11 12 13 14 15 16 17 18 19 20 21 22 23 24 25 26 27 28 29 30 31 32 33 34 35 36 37 38 39 40 41 42
000
FTUS41 KBOX 222334
TAFBOS
TAF
KBOS 222334Z 2300/2406 23015G24KT P6SM OVC050 WS020/25045KT
     FM230900 24014KT P6SM BKN070
     FM231600 25009KT P6SM SCT060
     FM240000 20006KT P6SM BKN090=

USA.gov is the U.S. government's official web portal to all federal, state and local government web resources and services.